Capitol Logistics 428


KIAD
Washington Dulles International Airport
Dulles, Virginia, US
KPWM
Portland International Jetport
Portland, Maine, US

Activity Log

Date Flight Route Aircraft Duration
01/20/2021 CPX428 JCOBY3 SWANN BROSS J42 RBV LGA BDR SCOGS3 B738 1h 23m
08/08/2019 CPX428 JCOBY3 SWANN BROSS J42 RBV LGA BDR SCOGS3 B752 1h 23m
12/03/2018 CPX528 JCOBY3 SWANN BROSS J42 RBV LGA BDR SCOGS3 B752 1h 14m
03/28/2018 CPX528 JCOBY3 SWANN BROSS J42 RBV LGA BDR SCOGS3 B752 1h 11m

Route Details

Aircraft Information
Primary: Boeing 737-800BCF
Backup: Not Available
Route Data
Distance: 429nm
Sched. Duration: 1h 35m
Avg. Duration: 1h 17m (-17m)
Times Flown: 4
Recm'd Route: JCOBY3 SWANN BROSS J42 RBV LGA BDR SCOGS3
Planned Altitude: 37,000ft
Origin Wx: KIAD 221552Z 30010KT 10SM SCT065 SCT250 08/M05 A2983 RMK AO2 PK WND 29026/1514 SLP101 T00831050
Dest. Wx: KPWM 221551Z 28003KT 10SM FEW035 SCT120 BKN250 M01/M04 A2961 RMK AO2 SLP029 T10061044
Notes: LOBSTER KING

Financial History
Total Freight: 153,974lbs
Average Load: 38,494lbs/flt
Fuel Used: 34,248lbs
Avg. Fuel Used: 8,562lbs/flt
Fuel Expense: $44,163
Avg. Fuel Expense: $11,041
Avg. Fuel Cost: $1.27/lbs
Total Gross Income: $197,074
Pilot Pay: $356
Total Expenses: $21,898
Total Revenue: $130,042
Average Revenue: $49,268.41